Terminal Aerodrome Forecast
Issued by NWS

Home | Current Version | Previous Version | Text Only | Print | Product List | Glossary On
Versions: 1 2 3 4 5 6 7 8 9 10 11 12 13 14 15 16 17 18 19 20 21 22 23 24 25 26 27
000
FTUS41 KBGM 221900 AAA
TAFITH
TAF AMD
KITH 221910Z 2219/2318 20006KT P6SM SCT025 BKN050
      TEMPO 2219/2221 4SM -TSRA BR OVC025CB
     FM222100 12004KT P6SM BKN035
     FM230300 13005KT P6SM FEW012 BKN020
     FM230600 13005KT 4SM BR OVC012
      TEMPO 2309/2313 OVC009
     FM231500 13007KT P6SM OVC020=

USA.gov is the U.S. government's official web portal to all federal, state and local government web resources and services.